Time;durP1;ratioP1;P1;durP2;ratioP2;P2;SDS_P1;SDS_P2;PMS_P1;PMS_P2;Temp;Humidity;BMP_temperature;BMP_pressure;BME280_temperature;BME280_humidity;BME280_pressure;Samples;Min_cycle;Max_cycle;Signal;HPM_P1;HPM_P2
2024/03/13 00:00:10;;;;;;;85.53;46.10;;;5.20;99.90;;;;;;7374833;19;20708;-58
2024/03/13 00:02:41;;;;;;;87.20;46.03;;;5.30;99.90;;;;;;7369791;19;20018;-59
2024/03/13 00:05:11;;;;;;;86.20;45.95;;;5.30;99.90;;;;;;7372402;19;20018;-59
2024/03/13 00:07:38;;;;;;;81.07;42.38;;;5.40;99.90;;;;;;7368888;19;20022;-59
2024/03/13 00:10:06;;;;;;;89.97;45.38;;;5.50;99.90;;;;;;7371978;19;20094;-61
2024/03/13 00:12:34;;;;;;;80.47;44.40;;;5.50;99.90;;;;;;7369657;19;20021;-59
2024/03/13 00:15:03;;;;;;;82.80;45.33;;;5.60;99.90;;;;;;7371366;19;20475;-58
2024/03/13 00:17:30;;;;;;;80.25;45.88;;;5.60;99.90;;;;;;7371357;19;20401;-61
2024/03/13 00:19:56;;;;;;;82.53;44.00;;;5.70;99.90;;;;;;7371618;19;20048;-60
2024/03/13 00:22:26;;;;;;;82.80;43.67;;;5.70;99.90;;;;;;7372222;19;20129;-60
2024/03/13 00:24:54;;;;;;;81.57;41.95;;;5.80;99.90;;;;;;7373797;19;20582;-61
2024/03/13 00:27:20;;;;;;;81.28;46.63;;;5.80;99.90;;;;;;7369092;19;21093;-61
2024/03/13 00:29:50;;;;;;;84.82;46.88;;;5.80;99.90;;;;;;7373337;19;20849;-61
2024/03/13 00:32:18;;;;;;;80.53;46.08;;;5.90;99.90;;;;;;7372463;19;20029;-61
2024/03/13 00:34:47;;;;;;;86.07;46.83;;;5.90;99.90;;;;;;7367949;19;20033;-59
2024/03/13 00:37:14;;;;;;;85.05;48.53;;;5.90;99.90;;;;;;7374264;19;20029;-61
2024/03/13 00:39:41;;;;;;;80.47;43.78;;;6.00;99.90;;;;;;7371304;19;20043;-61
2024/03/13 00:42:11;;;;;;;77.45;43.65;;;6.00;99.90;;;;;;7373469;19;20018;-61
2024/03/13 00:44:44;;;;;;;85.10;44.25;;;6.00;99.90;;;;;;7369431;19;20029;-58
2024/03/13 00:47:21;;;;;;;77.50;44.58;;;6.00;99.90;;;;;;7377503;19;20025;-61
2024/03/13 00:49:47;;;;;;;82.32;45.40;;;6.10;99.90;;;;;;7375057;19;20092;-62
2024/03/13 00:52:13;;;;;;;74.55;45.10;;;6.10;99.90;;;;;;7374104;19;20018;-59
2024/03/13 00:54:50;;;;;;;79.60;44.38;;;6.10;99.90;;;;;;7373151;19;20028;-59
2024/03/13 00:57:17;;;;;;;77.18;44.88;;;6.10;99.90;;;;;;7376817;19;20018;-59
2024/03/13 00:59:43;;;;;;;83.53;45.65;;;6.20;99.90;;;;;;7374188;19;20023;-58
2024/03/13 01:02:10;;;;;;;78.57;46.03;;;6.20;99.90;;;;;;7376200;19;20057;-59
2024/03/13 01:04:36;;;;;;;79.65;46.58;;;6.20;99.90;;;;;;7371749;19;20498;-59
2024/03/13 01:07:06;;;;;;;79.38;45.13;;;6.20;99.90;;;;;;7375472;19;20407;-60
2024/03/13 01:09:33;;;;;;;78.35;45.10;;;6.30;99.90;;;;;;7374959;19;20041;-59
2024/03/13 01:12:02;;;;;;;75.38;43.33;;;6.30;99.90;;;;;;7369548;19;20051;-63
2024/03/13 01:14:28;;;;;;;80.32;44.35;;;6.30;99.90;;;;;;7372730;19;20102;-61
2024/03/13 01:16:56;;;;;;;78.63;43.42;;;6.30;99.90;;;;;;7376811;19;20629;-60
2024/03/13 01:19:23;;;;;;;73.45;43.00;;;6.40;99.90;;;;;;7373025;19;20026;-61
2024/03/13 01:22:04;;;;;;;71.45;40.33;;;6.40;99.90;;;;;;7373345;19;20019;-61
2024/03/13 01:24:34;;;;;;;72.22;43.75;;;6.40;99.90;;;;;;7372960;19;20014;-62
2024/03/13 01:27:01;;;;;;;63.97;40.60;;;6.40;99.90;;;;;;7371888;19;20015;-59
2024/03/13 01:29:27;;;;;;;73.93;44.47;;;6.40;99.90;;;;;;7375379;19;20028;-62
2024/03/13 01:31:57;;;;;;;74.07;42.40;;;6.40;99.90;;;;;;7374589;19;20185;-62
2024/03/13 01:34:23;;;;;;;74.45;41.88;;;6.40;99.90;;;;;;7376484;19;20059;-59
2024/03/13 01:39:37;;;;;;;69.47;40.58;;;6.40;99.90;;;;;;7376651;19;20038;-61
2024/03/13 01:56:26;;;;;;;68.30;40.97;;;6.50;99.90;;;;;;7374991;19;20019;-58
2024/03/13 01:59:07;;;;;;;74.05;41.85;;;6.50;99.90;;;;;;7368708;19;20014;-59
2024/03/13 02:04:18;;;;;;;69.22;39.35;;;6.60;99.90;;;;;;7373341;19;20509;-58
2024/03/13 02:06:46;;;;;;;67.47;40.55;;;6.50;99.90;;;;;;7373824;19;20022;-59
2024/03/13 02:09:12;;;;;;;74.57;41.72;;;6.60;99.90;;;;;;7371793;19;20019;-59
2024/03/13 02:11:41;;;;;;;68.70;40.45;;;6.60;99.90;;;;;;7371498;19;20030;-61
2024/03/13 02:14:08;;;;;;;66.03;39.20;;;6.60;99.90;;;;;;7372361;19;20645;-59
2024/03/13 02:16:35;;;;;;;69.28;39.45;;;6.60;99.90;;;;;;7374449;19;20510;-59
2024/03/13 02:19:02;;;;;;;68.57;39.63;;;6.60;99.90;;;;;;7370999;19;20014;-59
2024/03/13 02:21:29;;;;;;;72.32;40.00;;;6.60;99.90;;;;;;7373386;19;20021;-61
2024/03/13 02:23:56;;;;;;;66.93;39.30;;;6.70;99.90;;;;;;7375576;19;20022;-58
2024/03/13 02:26:24;;;;;;;65.93;38.05;;;6.70;99.90;;;;;;7375901;19;20045;-61
2024/03/13 02:28:51;;;;;;;67.60;39.70;;;6.70;99.90;;;;;;7373393;19;20018;-61
2024/03/13 02:31:18;;;;;;;66.30;38.80;;;6.70;99.90;;;;;;7370947;19;20022;-62
2024/03/13 02:33:44;;;;;;;63.03;38.08;;;6.70;99.90;;;;;;7376711;19;20018;-62
2024/03/13 02:36:10;;;;;;;62.83;37.88;;;6.70;99.90;;;;;;7372783;19;20025;-61
2024/03/13 02:38:37;;;;;;;65.47;39.10;;;6.70;99.90;;;;;;7367562;19;20019;-62
2024/03/13 02:41:03;;;;;;;63.05;37.58;;;6.70;99.90;;;;;;7371959;19;20044;-60
2024/03/13 02:43:32;;;;;;;61.00;36.75;;;6.80;99.90;;;;;;7370647;19;20022;-59
2024/03/13 02:45:58;;;;;;;64.03;36.22;;;6.80;99.90;;;;;;7371620;19;20018;-60
2024/03/13 02:48:24;;;;;;;63.63;37.90;;;6.80;99.90;;;;;;7369700;19;20041;-62
2024/03/13 02:50:51;;;;;;;58.35;36.13;;;6.80;99.90;;;;;;7370726;19;20014;-60
2024/03/13 02:53:18;;;;;;;65.10;38.80;;;6.80;99.90;;;;;;7370700;19;20780;-61
2024/03/13 02:55:44;;;;;;;59.17;36.92;;;6.80;99.90;;;;;;7378618;19;20019;-60
2024/03/13 02:58:11;;;;;;;62.25;36.28;;;6.90;99.90;;;;;;7375961;19;20030;-60
2024/03/13 03:00:38;;;;;;;62.03;36.60;;;6.90;99.90;;;;;;7379805;19;20118;-60
2024/03/13 03:03:04;;;;;;;57.00;36.25;;;6.90;99.90;;;;;;7374925;19;20548;-62
2024/03/13 03:05:32;;;;;;;61.60;35.15;;;6.90;99.90;;;;;;7380973;19;20344;-60
2024/03/13 03:07:58;;;;;;;60.65;36.95;;;6.90;99.90;;;;;;7377762;19;20018;-60
2024/03/13 03:10:25;;;;;;;58.30;34.08;;;6.90;99.90;;;;;;7378074;19;20018;-60
2024/03/13 03:12:51;;;;;;;61.88;35.95;;;6.90;99.90;;;;;;7374329;19;20513;-62
2024/03/13 03:15:18;;;;;;;56.55;34.17;;;6.90;99.90;;;;;;7375839;19;20019;-60
2024/03/13 03:17:45;;;;;;;64.68;35.95;;;6.90;99.90;;;;;;7377211;19;20022;-60
2024/03/13 03:20:12;;;;;;;60.08;34.72;;;7.00;99.90;;;;;;7379632;19;20093;-60
2024/03/13 03:22:38;;;;;;;56.65;35.33;;;7.00;99.90;;;;;;7376726;19;20019;-60
2024/03/13 03:25:07;;;;;;;59.90;34.90;;;7.00;99.90;;;;;;7377209;19;20089;-60
2024/03/13 03:27:33;;;;;;;56.90;34.33;;;7.00;99.90;;;;;;7381589;19;20018;-60
2024/03/13 03:30:01;;;;;;;52.67;33.70;;;7.10;99.90;;;;;;7376257;19;20125;-60
2024/03/13 03:32:28;;;;;;;55.35;32.88;;;7.20;99.90;;;;;;7372561;19;20475;-62
2024/03/13 03:34:55;;;;;;;51.47;31.42;;;7.20;99.90;;;;;;7372722;19;20022;-62
2024/03/13 03:37:21;;;;;;;57.65;33.97;;;7.20;99.90;;;;;;7368925;19;20022;-60
2024/03/13 03:39:48;;;;;;;52.92;31.00;;;7.30;99.90;;;;;;7378619;19;20098;-59
2024/03/13 03:42:16;;;;;;;53.55;32.58;;;7.30;99.90;;;;;;7376947;19;20737;-60
2024/03/13 03:44:42;;;;;;;54.28;32.83;;;7.30;99.90;;;;;;7379607;19;20025;-61
2024/03/13 03:47:10;;;;;;;60.08;34.05;;;7.40;99.90;;;;;;7376795;19;20023;-62
2024/03/13 03:49:36;;;;;;;50.85;32.63;;;7.40;99.90;;;;;;7376721;19;20014;-61
2024/03/13 03:52:03;;;;;;;57.33;33.08;;;7.40;99.90;;;;;;7377177;19;20057;-61
2024/03/13 03:54:29;;;;;;;57.28;32.65;;;7.40;99.90;;;;;;7377747;19;20023;-62
2024/03/13 03:56:55;;;;;;;55.50;32.13;;;7.40;99.90;;;;;;7373739;19;20043;-59
2024/03/13 03:59:23;;;;;;;58.67;34.30;;;7.40;99.90;;;;;;7373931;19;20003;-59
2024/03/13 04:01:50;;;;;;;56.40;32.85;;;7.40;99.90;;;;;;7376084;19;20481;-60
2024/03/13 04:04:16;;;;;;;61.58;33.95;;;7.40;99.90;;;;;;7378125;19;20042;-64
2024/03/13 04:06:43;;;;;;;58.15;34.10;;;7.40;99.90;;;;;;7375961;19;20015;-60
2024/03/13 04:09:16;;;;;;;56.72;33.53;;;7.40;99.90;;;;;;7376621;19;20025;-61
2024/03/13 04:11:42;;;;;;;61.35;35.20;;;7.40;99.90;;;;;;7375697;19;20026;-62
2024/03/13 04:14:10;;;;;;;58.80;34.85;;;7.40;99.90;;;;;;7374571;19;20765;-59
2024/03/13 04:16:43;;;;;;;57.75;33.75;;;7.40;99.90;;;;;;7375143;19;20019;-62
2024/03/13 04:19:13;;;;;;;57.70;35.35;;;7.40;99.90;;;;;;7367283;19;20022;-62
2024/03/13 04:21:40;;;;;;;59.92;35.10;;;7.40;99.90;;;;;;7373570;19;20010;-60
2024/03/13 04:24:09;;;;;;;60.45;33.55;;;7.50;99.90;;;;;;7365006;19;20078;-60
2024/03/13 04:26:41;;;;;;;62.15;36.05;;;7.50;99.90;;;;;;7368219;19;20025;-60
2024/03/13 04:29:07;;;;;;;60.70;33.92;;;7.40;99.90;;;;;;7367429;19;20023;-60
2024/03/13 04:31:34;;;;;;;62.95;36.10;;;7.50;99.90;;;;;;7368650;19;20014;-59
2024/03/13 04:34:00;;;;;;;62.60;34.03;;;7.40;99.90;;;;;;7365374;19;20018;-60
2024/03/13 04:36:26;;;;;;;60.65;36.10;;;7.40;99.90;;;;;;7372548;19;20022;-60
2024/03/13 04:38:53;;;;;;;62.28;34.83;;;7.40;99.90;;;;;;7369514;19;20030;-60
2024/03/13 04:41:19;;;;;;;65.55;35.22;;;7.40;99.90;;;;;;7372962;19;20053;-60
2024/03/13 04:43:46;;;;;;;63.00;36.53;;;7.40;99.90;;;;;;7371592;19;20627;-62
2024/03/13 04:46:18;;;;;;;65.90;35.45;;;7.40;99.90;;;;;;7372705;19;20025;-62
2024/03/13 04:48:45;;;;;;;67.13;35.47;;;7.50;99.90;;;;;;7375332;19;20035;-62
2024/03/13 04:51:14;;;;;;;71.88;38.55;;;7.40;99.90;;;;;;7374631;19;20018;-62
2024/03/13 04:53:43;;;;;;;71.40;39.88;;;7.50;99.90;;;;;;7376531;19;20041;-60
2024/03/13 04:56:13;;;;;;;69.78;38.95;;;7.50;99.90;;;;;;7376226;19;20018;-60
2024/03/13 04:58:39;;;;;;;71.18;38.53;;;7.50;99.90;;;;;;7372519;19;20026;-59
2024/03/13 05:01:07;;;;;;;79.40;40.80;;;7.50;99.90;;;;;;7371904;19;20019;-60
2024/03/13 05:03:33;;;;;;;84.47;40.67;;;7.50;99.90;;;;;;7375028;19;20026;-59
2024/03/13 05:06:00;;;;;;;82.60;41.50;;;7.50;99.90;;;;;;7374806;19;20053;-60
2024/03/13 05:08:26;;;;;;;94.25;42.67;;;7.50;99.90;;;;;;7374714;19;20027;-61
2024/03/13 05:10:52;;;;;;;97.93;45.67;;;7.50;99.90;;;;;;7372819;19;20022;-60
2024/03/13 05:13:19;;;;;;;97.25;44.33;;;7.50;99.90;;;;;;7373042;19;20494;-62
2024/03/13 05:15:45;;;;;;;99.13;44.38;;;7.50;99.90;;;;;;7370055;19;20019;-62
2024/03/13 05:18:12;;;;;;;106.03;47.10;;;7.40;99.90;;;;;;7373826;19;20830;-62
2024/03/13 05:20:39;;;;;;;105.68;43.53;;;7.40;99.90;;;;;;7374352;19;20027;-60
2024/03/13 05:23:06;;;;;;;118.40;46.65;;;7.40;99.90;;;;;;7370630;19;20035;-60
2024/03/13 05:25:32;;;;;;;127.38;49.03;;;7.50;99.90;;;;;;7374112;19;20019;-60
2024/03/13 05:27:59;;;;;;;125.97;47.83;;;7.40;99.90;;;;;;7373894;19;21020;-62
2024/03/13 05:30:25;;;;;;;142.07;50.17;;;7.40;99.90;;;;;;7374035;19;20029;-62
2024/03/13 05:32:51;;;;;;;142.02;51.45;;;7.40;99.90;;;;;;7365840;19;20018;-62
2024/03/13 05:35:18;;;;;;;137.30;49.75;;;7.40;99.90;;;;;;7368131;19;20029;-62
2024/03/13 05:37:47;;;;;;;147.80;50.53;;;7.40;99.90;;;;;;7363961;19;20685;-62
2024/03/13 05:40:16;;;;;;;153.80;51.42;;;7.40;99.90;;;;;;7365522;19;20010;-60
2024/03/13 05:42:43;;;;;;;163.07;53.63;;;7.40;99.90;;;;;;7368626;19;20019;-62
2024/03/13 05:45:10;;;;;;;173.40;53.22;;;7.40;99.90;;;;;;7366815;19;20019;-61
2024/03/13 05:47:36;;;;;;;182.05;57.17;;;7.40;99.90;;;;;;7363645;19;20014;-59
2024/03/13 05:50:03;;;;;;;198.50;55.55;;;7.40;99.90;;;;;;7364751;19;20022;-62
2024/03/13 05:52:29;;;;;;;186.00;55.65;;;7.50;99.90;;;;;;7384382;19;20097;-64
2024/03/13 05:54:56;;;;;;;207.70;57.33;;;7.50;99.90;;;;;;7389780;19;20041;-64
2024/03/13 05:57:22;;;;;;;187.50;56.08;;;7.50;99.90;;;;;;7388806;19;20022;-64
2024/03/13 05:59:50;;;;;;;215.40;57.63;;;7.50;99.90;;;;;;7384221;19;20007;-65
2024/03/13 06:02:16;;;;;;;229.18;56.88;;;7.50;99.90;;;;;;7390089;19;20015;-65
2024/03/13 06:04:43;;;;;;;227.60;59.38;;;7.50;99.90;;;;;;7386270;19;20022;-64
2024/03/13 06:07:10;;;;;;;243.98;61.15;;;7.50;99.90;;;;;;7378344;19;20644;-65
2024/03/13 06:09:36;;;;;;;246.15;61.05;;;7.50;99.90;;;;;;7368461;19;20022;-64
2024/03/13 06:12:03;;;;;;;226.50;59.00;;;7.50;99.90;;;;;;7377102;19;20014;-65
2024/03/13 06:14:30;;;;;;;267.20;61.58;;;7.60;99.90;;;;;;7373630;19;20010;-64
2024/03/13 06:16:56;;;;;;;230.05;60.53;;;7.60;99.90;;;;;;7367910;19;20407;-65
2024/03/13 06:19:23;;;;;;;260.73;63.47;;;7.60;99.90;;;;;;7379811;19;20060;-65
2024/03/13 06:21:49;;;;;;;244.10;59.20;;;7.60;99.90;;;;;;7381246;19;20022;-66
2024/03/13 06:24:22;;;;;;;229.55;60.38;;;7.60;99.90;;;;;;7376821;19;20388;-65
2024/03/13 06:26:49;;;;;;;197.23;55.35;;;7.70;99.90;;;;;;7377962;19;20674;-65
2024/03/13 06:32:01;;;;;;;222.05;58.67;;;7.70;99.90;;;;;;7367038;19;20049;-62
2024/03/13 06:34:27;;;;;;;214.43;58.67;;;7.80;99.90;;;;;;7372952;19;20523;-63
2024/03/13 06:36:54;;;;;;;195.45;54.25;;;7.80;99.90;;;;;;7362178;19;20014;-64
2024/03/13 06:39:21;;;;;;;177.98;51.85;;;7.80;99.90;;;;;;7378178;19;20022;-64
2024/03/13 06:41:50;;;;;;;182.77;54.05;;;7.80;99.90;;;;;;7367017;19;20023;-63
2024/03/13 06:44:17;;;;;;;174.95;54.30;;;7.80;99.90;;;;;;7370819;19;20082;-62
2024/03/13 06:46:44;;;;;;;163.23;51.38;;;7.90;99.90;;;;;;7367136;19;20078;-63
2024/03/13 06:49:11;;;;;;;165.00;49.72;;;7.90;99.90;;;;;;7372803;19;20106;-65
2024/03/13 06:51:37;;;;;;;164.57;52.72;;;7.90;99.90;;;;;;7375132;19;20361;-64
2024/03/13 06:54:04;;;;;;;158.23;50.53;;;8.00;99.90;;;;;;7369949;19;20022;-64
2024/03/13 06:56:31;;;;;;;170.93;53.15;;;8.00;99.90;;;;;;7364635;19;20038;-64
2024/03/13 06:58:58;;;;;;;148.80;49.47;;;8.00;99.90;;;;;;7365756;19;20845;-64
2024/03/13 07:01:24;;;;;;;141.65;49.50;;;8.10;99.90;;;;;;7372961;19;20485;-64
2024/03/13 07:03:50;;;;;;;166.43;51.13;;;8.10;99.90;;;;;;7377259;19;20122;-65
2024/03/13 07:06:18;;;;;;;164.65;51.55;;;8.10;99.90;;;;;;7380009;19;20014;-64
2024/03/13 07:08:44;;;;;;;152.75;49.00;;;8.10;99.90;;;;;;7376126;19;20007;-64
2024/03/13 07:11:13;;;;;;;150.75;48.88;;;8.20;99.90;;;;;;7365932;19;20039;-62
2024/03/13 07:13:40;;;;;;;148.32;48.80;;;8.20;99.90;;;;;;7361298;19;20018;-63
2024/03/13 07:16:06;;;;;;;121.60;45.88;;;8.20;99.90;;;;;;7365483;19;20503;-64
2024/03/13 07:18:33;;;;;;;148.95;48.75;;;8.30;99.90;;;;;;7361398;19;20019;-64
2024/03/13 07:21:02;;;;;;;132.93;47.08;;;8.30;99.90;;;;;;7369856;19;20697;-64
2024/03/13 07:23:31;;;;;;;148.95;48.63;;;8.30;99.90;;;;;;7367563;19;20042;-64
2024/03/13 07:25:59;;;;;;;142.40;48.38;;;8.40;99.90;;;;;;7371022;19;20616;-64
2024/03/13 07:28:25;;;;;;;138.95;46.20;;;8.40;99.90;;;;;;7369916;19;20014;-65
2024/03/13 07:30:51;;;;;;;146.38;46.53;;;8.40;99.90;;;;;;7360474;19;20018;-64
2024/03/13 07:33:18;;;;;;;136.05;45.75;;;8.50;99.90;;;;;;7373701;19;20029;-64
2024/03/13 07:35:44;;;;;;;136.52;45.88;;;8.50;99.90;;;;;;7366800;19;20042;-64
2024/03/13 07:38:10;;;;;;;145.32;47.55;;;8.50;99.90;;;;;;7371804;19;20010;-64
2024/03/13 07:40:37;;;;;;;146.38;47.13;;;8.60;99.90;;;;;;7369142;19;20018;-62
2024/03/13 07:43:08;;;;;;;136.23;42.88;;;8.60;99.90;;;;;;7376749;19;20014;-64
2024/03/13 07:45:37;;;;;;;137.27;43.92;;;8.70;99.90;;;;;;7373474;19;20030;-64
2024/03/13 07:48:12;;;;;;;149.85;45.63;;;8.70;99.90;;;;;;7374483;19;20017;-64
2024/03/13 07:50:39;;;;;;;120.80;41.50;;;8.70;99.90;;;;;;7379812;19;20512;-64
2024/03/13 07:53:06;;;;;;;162.25;46.72;;;8.80;99.90;;;;;;7371631;19;20026;-65
2024/03/13 07:55:32;;;;;;;144.07;45.00;;;8.90;99.90;;;;;;7371084;19;20585;-65
2024/03/13 07:58:00;;;;;;;150.73;41.95;;;8.80;99.90;;;;;;7371151;19;20389;-63
2024/03/13 08:00:29;;;;;;;177.48;46.28;;;8.90;99.90;;;;;;7376491;19;20597;-64
2024/03/13 08:02:56;;;;;;;156.77;45.15;;;8.90;99.90;;;;;;7376320;19;20018;-64
2024/03/13 08:05:22;;;;;;;112.38;38.42;;;8.90;99.90;;;;;;7371975;19;20017;-64
2024/03/13 08:07:49;;;;;;;136.43;41.85;;;8.90;99.90;;;;;;7368448;19;20018;-64
2024/03/13 08:10:17;;;;;;;126.97;39.55;;;9.00;99.90;;;;;;7374907;19;20109;-63
2024/03/13 08:12:44;;;;;;;107.68;36.45;;;9.00;99.90;;;;;;7376293;19;20022;-64
2024/03/13 08:15:11;;;;;;;102.05;35.60;;;9.00;99.90;;;;;;7371324;19;20502;-65
2024/03/13 08:17:38;;;;;;;89.63;33.03;;;9.10;99.90;;;;;;7372650;19;20025;-64
2024/03/13 08:20:06;;;;;;;102.38;34.65;;;9.10;99.90;;;;;;7374132;19;20019;-66
2024/03/13 08:22:33;;;;;;;93.18;32.97;;;9.20;99.90;;;;;;7380259;19;20106;-65
2024/03/13 08:25:00;;;;;;;100.07;33.83;;;9.20;99.90;;;;;;7373481;19;20785;-65
2024/03/13 08:27:26;;;;;;;81.22;29.98;;;9.20;99.90;;;;;;7384666;19;20018;-65
2024/03/13 08:29:53;;;;;;;79.63;29.25;;;9.30;99.90;;;;;;7381675;19;20030;-65
2024/03/13 08:32:19;;;;;;;90.10;29.77;;;9.30;99.90;;;;;;7372449;19;20405;-65
2024/03/13 08:34:46;;;;;;;72.40;27.05;;;9.50;99.90;;;;;;7374207;19;20051;-65
2024/03/13 08:37:14;;;;;;;82.90;30.05;;;9.50;99.90;;;;;;7376768;19;20007;-64
2024/03/13 08:39:41;;;;;;;87.72;30.25;;;9.60;99.90;;;;;;7377496;19;20105;-64
2024/03/13 08:42:08;;;;;;;82.60;29.13;;;9.70;99.90;;;;;;7382042;19;20022;-64
2024/03/13 08:44:34;;;;;;;74.00;25.98;;;9.80;99.90;;;;;;7374787;19;20041;-64
2024/03/13 08:47:01;;;;;;;66.25;25.65;;;9.80;99.90;;;;;;7373914;19;20010;-65
2024/03/13 08:49:27;;;;;;;62.28;24.42;;;9.80;99.90;;;;;;7384568;19;20031;-65
2024/03/13 08:51:54;;;;;;;70.03;24.85;;;9.90;99.90;;;;;;7370785;19;20026;-65
2024/03/13 08:54:21;;;;;;;64.28;25.08;;;9.90;99.90;;;;;;7379184;19;20494;-65
2024/03/13 08:56:48;;;;;;;67.03;25.17;;;9.90;99.90;;;;;;7366999;19;20019;-64
2024/03/13 08:59:14;;;;;;;61.05;23.40;;;9.90;99.90;;;;;;7382310;19;20045;-64
2024/03/13 09:01:41;;;;;;;55.13;23.17;;;9.90;99.90;;;;;;7379230;19;20026;-65
2024/03/13 09:04:09;;;;;;;50.05;22.10;;;10.00;99.90;;;;;;7376287;19;20800;-64
2024/03/13 09:06:38;;;;;;;53.97;21.73;;;10.00;99.90;;;;;;7381587;19;20380;-66
2024/03/13 09:09:06;;;;;;;54.83;21.35;;;10.00;99.90;;;;;;7381229;19;20015;-65
2024/03/13 09:11:35;;;;;;;55.08;22.58;;;10.10;99.90;;;;;;7385519;19;20010;-63
2024/03/13 09:14:03;;;;;;;53.88;22.70;;;10.10;99.90;;;;;;7371449;19;20081;-64
2024/03/13 09:16:31;;;;;;;55.80;22.15;;;10.20;99.90;;;;;;7371593;19;20022;-64
2024/03/13 09:18:58;;;;;;;51.72;21.80;;;10.20;99.90;;;;;;7376931;19;20022;-64
2024/03/13 09:21:25;;;;;;;51.35;22.63;;;10.20;99.90;;;;;;7368929;19;20470;-65
2024/03/13 09:23:52;;;;;;;57.35;23.02;;;10.20;99.90;;;;;;7378114;19;20014;-64
2024/03/13 09:26:19;;;;;;;56.17;24.55;;;10.30;99.90;;;;;;7380300;19;20015;-64
2024/03/13 09:28:46;;;;;;;53.17;24.10;;;10.30;99.90;;;;;;7376557;19;20386;-63
2024/03/13 09:31:13;;;;;;;56.28;24.25;;;10.30;99.90;;;;;;7379894;19;20010;-65
2024/03/13 09:33:39;;;;;;;64.40;25.35;;;10.30;99.90;;;;;;7379261;19;20010;-63
2024/03/13 09:36:12;;;;;;;63.10;25.42;;;10.30;99.90;;;;;;7366514;19;20105;-63
2024/03/13 09:38:40;;;;;;;62.05;25.45;;;10.40;99.90;;;;;;7365518;19;20018;-63
2024/03/13 09:41:07;;;;;;;64.97;27.02;;;10.50;99.90;;;;;;7360720;19;20045;-63
2024/03/13 09:43:33;;;;;;;72.03;27.75;;;10.50;99.90;;;;;;7370227;19;20514;-62
2024/03/13 09:46:01;;;;;;;75.43;29.92;;;10.60;99.90;;;;;;7364854;19;20059;-63
2024/03/13 09:48:28;;;;;;;76.72;28.83;;;10.50;99.90;;;;;;7382063;19;20733;-63
2024/03/13 09:50:56;;;;;;;82.88;32.67;;;10.60;99.90;;;;;;7377326;19;20106;-64
2024/03/13 09:53:28;;;;;;;72.22;28.95;;;10.70;99.90;;;;;;7384526;19;20010;-64
2024/03/13 09:55:54;;;;;;;72.15;29.92;;;10.70;99.90;;;;;;7382299;19;20041;-63
2024/03/13 09:58:21;;;;;;;70.93;31.05;;;10.70;99.90;;;;;;7384554;19;20026;-64
2024/03/13 10:00:56;;;;;;;76.00;29.55;;;10.80;99.90;;;;;;7383767;19;20086;-64
2024/03/13 10:03:28;;;;;;;69.82;28.35;;;10.80;99.90;;;;;;7382952;19;20042;-64
2024/03/13 10:06:05;;;;;;;68.97;28.05;;;10.80;99.90;;;;;;7381864;19;20022;-64
2024/03/13 10:08:34;;;;;;;69.72;28.92;;;10.80;99.90;;;;;;7384870;19;20027;-64
2024/03/13 10:11:04;;;;;;;69.30;28.65;;;10.90;99.90;;;;;;7382620;19;20082;-65
2024/03/13 10:13:34;;;;;;;73.50;29.38;;;10.90;99.90;;;;;;7380998;19;20559;-65
2024/03/13 10:16:01;;;;;;;74.95;31.38;;;10.90;99.90;;;;;;7383874;19;20024;-65
2024/03/13 10:18:29;;;;;;;70.25;31.35;;;11.00;99.90;;;;;;7385769;19;20022;-65
2024/03/13 10:21:14;;;;;;;65.80;28.40;;;11.00;99.90;;;;;;7384969;19;20940;-65
2024/03/13 10:23:47;;;;;;;64.25;30.02;;;11.00;99.90;;;;;;7385659;19;20090;-65
2024/03/13 10:26:16;;;;;;;67.72;30.60;;;11.10;99.90;;;;;;7384543;19;20421;-65
2024/03/13 10:28:44;;;;;;;64.47;30.27;;;11.10;99.90;;;;;;7387508;19;20014;-65
2024/03/13 10:31:14;;;;;;;63.00;29.20;;;11.10;99.90;;;;;;7385208;19;20022;-63
2024/03/13 10:33:40;;;;;;;60.83;27.40;;;11.20;99.90;;;;;;7386738;19;20538;-64
2024/03/13 10:36:07;;;;;;;59.30;26.33;;;11.20;99.90;;;;;;7382700;19;20014;-64
2024/03/13 10:38:35;;;;;;;53.42;27.50;;;11.30;99.90;;;;;;7383187;19;20014;-64
2024/03/13 10:41:02;;;;;;;45.05;25.65;;;11.30;99.90;;;;;;7372577;19;20015;-64
2024/03/13 10:43:31;;;;;;;46.97;24.52;;;11.30;99.90;;;;;;7367956;19;20018;-66
2024/03/13 10:45:58;;;;;;;40.15;23.02;;;11.30;99.90;;;;;;7369338;19;20021;-64
2024/03/13 10:48:24;;;;;;;43.72;23.40;;;11.40;99.90;;;;;;7365282;19;20026;-62
2024/03/13 10:50:51;;;;;;;39.10;23.70;;;11.30;99.90;;;;;;7373658;19;20650;-65
2024/03/13 10:53:19;;;;;;;39.78;24.60;;;11.40;99.90;;;;;;7381528;19;20019;-65
2024/03/13 10:55:46;;;;;;;41.17;24.20;;;11.40;99.90;;;;;;7382754;19;20014;-64
2024/03/13 10:58:20;;;;;;;40.13;23.50;;;11.40;99.90;;;;;;7379948;19;20070;-65
2024/03/13 11:00:49;;;;;;;39.08;25.15;;;11.40;99.90;;;;;;7384383;19;20063;-65
2024/03/13 11:03:16;;;;;;;40.97;24.55;;;11.40;99.90;;;;;;7383622;19;20018;-65
2024/03/13 11:05:42;;;;;;;42.75;24.45;;;11.40;99.90;;;;;;7384297;19;20375;-65
2024/03/13 11:08:09;;;;;;;46.15;25.52;;;11.50;99.90;;;;;;7383371;19;20026;-65
2024/03/13 11:10:36;;;;;;;46.78;24.13;;;11.50;99.90;;;;;;7376294;19;20011;-64
2024/03/13 11:13:06;;;;;;;43.20;24.38;;;11.50;99.90;;;;;;7362803;19;20018;-64
2024/03/13 11:15:35;;;;;;;40.75;24.77;;;11.60;99.90;;;;;;7384442;19;20014;-66
2024/03/13 11:18:04;;;;;;;38.67;23.55;;;11.60;99.90;;;;;;7389770;19;20039;-64
2024/03/13 11:20:37;;;;;;;41.85;24.02;;;11.70;99.90;;;;;;7388780;19;20018;-63
2024/03/13 11:23:12;;;;;;;42.90;24.98;;;11.70;99.90;;;;;;7380324;19;20018;-64
2024/03/13 11:25:41;;;;;;;44.33;24.63;;;11.70;99.90;;;;;;7390570;19;20018;-64
2024/03/13 11:28:27;;;;;;;37.65;23.42;;;11.60;99.90;;;;;;7390366;19;20022;-65
2024/03/13 11:30:54;;;;;;;46.20;25.17;;;11.60;99.90;;;;;;7388582;19;20043;-64
2024/03/13 11:33:24;;;;;;;41.67;23.80;;;11.60;99.90;;;;;;7388800;19;20625;-65
2024/03/13 11:35:58;;;;;;;40.08;24.90;;;11.60;99.90;;;;;;7396594;19;20074;-65
2024/03/13 11:38:25;;;;;;;38.20;25.90;;;11.60;99.90;;;;;;7395105;19;20419;-65
2024/03/13 11:40:52;;;;;;;45.33;25.90;;;11.60;99.90;;;;;;7386485;19;20556;-62
2024/03/13 11:43:22;;;;;;;44.35;26.83;;;11.60;99.90;;;;;;7374123;19;20032;-65
2024/03/13 11:45:48;;;;;;;43.20;26.67;;;11.60;99.90;;;;;;7377407;19;20022;-64
2024/03/13 11:48:19;;;;;;;43.25;27.13;;;11.60;99.90;;;;;;7375685;19;20014;-63
2024/03/13 11:51:01;;;;;;;45.95;26.63;;;11.60;99.90;;;;;;7378811;19;20147;-65
2024/03/13 11:53:31;;;;;;;116.78;92.93;;;11.70;99.90;;;;;;7382774;19;20416;-63
2024/03/13 11:56:01;;;;;;;113.22;74.38;;;11.70;99.90;;;;;;7369818;19;20018;-65
2024/03/13 11:58:27;;;;;;;63.13;38.70;;;11.70;99.90;;;;;;7376652;19;20022;-65
2024/03/13 12:00:54;;;;;;;85.80;62.15;;;11.70;99.90;;;;;;7367704;19;20025;-63
2024/03/13 12:03:20;;;;;;;48.38;31.65;;;11.70;99.90;;;;;;7374318;19;20026;-62
2024/03/13 12:05:47;;;;;;;64.07;38.42;;;11.80;99.90;;;;;;7367993;19;20010;-62
2024/03/13 12:08:15;;;;;;;54.28;31.73;;;11.80;99.90;;;;;;7371124;19;20014;-62
2024/03/13 12:10:41;;;;;;;59.22;37.10;;;11.80;99.90;;;;;;7370307;19;20510;-62
2024/03/13 12:13:17;;;;;;;51.35;29.60;;;11.90;99.90;;;;;;7369949;19;20093;-63
2024/03/13 12:15:46;;;;;;;48.08;32.08;;;11.90;99.90;;;;;;7371219;19;20018;-59
2024/03/13 12:18:13;;;;;;;60.78;38.60;;;11.90;99.90;;;;;;7359464;19;20019;-63
2024/03/13 12:20:45;;;;;;;52.58;27.67;;;11.90;99.90;;;;;;7367544;19;20022;-61
2024/03/13 12:23:13;;;;;;;46.97;26.95;;;12.00;99.90;;;;;;7372221;19;20020;-63
2024/03/13 12:25:42;;;;;;;47.95;26.65;;;12.00;99.90;;;;;;7372458;19;20039;-62
2024/03/13 12:28:16;;;;;;;44.25;24.92;;;12.00;99.90;;;;;;7367119;19;20029;-62
2024/03/13 12:30:44;;;;;;;48.22;26.17;;;12.00;99.90;;;;;;7371557;19;20049;-63
2024/03/13 12:33:11;;;;;;;39.63;25.10;;;12.00;99.90;;;;;;7363353;19;20022;-63
2024/03/13 12:35:37;;;;;;;47.13;28.17;;;12.00;99.90;;;;;;7361069;19;20032;-62
2024/03/13 12:38:05;;;;;;;102.20;76.45;;;12.00;99.90;;;;;;7368619;19;20030;-64
2024/03/13 12:40:34;;;;;;;42.67;29.30;;;12.10;99.90;;;;;;7369258;19;20018;-61
2024/03/13 12:43:09;;;;;;;37.95;23.08;;;12.00;99.90;;;;;;7370763;19;20018;-63
2024/03/13 12:45:35;;;;;;;36.58;26.10;;;12.00;99.90;;;;;;7369887;19;20011;-62
2024/03/13 12:48:03;;;;;;;45.30;27.98;;;12.00;99.90;;;;;;7369297;19;20022;-64
2024/03/13 12:50:29;;;;;;;36.50;21.02;;;12.00;99.90;;;;;;7369170;19;20102;-66
2024/03/13 12:52:58;;;;;;;30.30;19.00;;;12.10;99.90;;;;;;7366548;19;20018;-66
2024/03/13 12:55:24;;;;;;;30.23;19.63;;;12.20;99.90;;;;;;7371894;19;20837;-64